Time;durP1;ratioP1;P1;durP2;ratioP2;P2;SDS_P1;SDS_P2;PMS_P1;PMS_P2;Temp;Humidity;BMP_temperature;BMP_pressure;BME280_temperature;BME280_humidity;BME280_pressure;Samples;Min_cycle;Max_cycle;Signal;HPM_P1;HPM_P2
2022/08/04 00:01:39;;;;;;;;;;;;;;;;;;4970510;28;19914;-50
2022/08/04 00:04:05;;;;;;;;;;;;;;;;;;4972607;28;20295;-50
2022/08/04 00:06:31;;;;;;;;;;;;;;;;;;4988742;28;19910;-51
2022/08/04 00:08:58;;;;;;;;;;;;;;;;;;4989171;28;19917;-53
2022/08/04 00:11:24;;;;;;;;;;;;;;;;;;4989138;28;19910;-49
2022/08/04 00:13:50;;;;;;;;;;;;;;;;;;4988918;28;19913;-55
2022/08/04 00:16:17;;;;;;;;;;;;;;;;;;4989107;28;19909;-53
2022/08/04 00:18:43;;;;;;;;;;;;;;;;;;4989038;28;19973;-53
2022/08/04 00:21:09;;;;;;;;;;;;;;;;;;4989012;28;19961;-54
2022/08/04 00:23:35;;;;;;;;;;;;;;;;;;4988800;28;19906;-50
2022/08/04 00:26:01;;;;;;;;;;;;;;;;;;4971635;28;19917;-50
2022/08/04 00:28:26;;;;;;;;;;;;;;;;;;4969501;28;19914;-52
2022/08/04 00:30:52;;;;;;;;;;;;;;;;;;4968937;28;20369;-50
2022/08/04 00:33:19;;;;;;;;;;;;;;;;;;4969542;28;19914;-49
2022/08/04 00:35:47;;;;;;;;;;;;;;;;;;4968898;28;19910;-51
2022/08/04 00:38:13;;;;;;;;;;;;;;;;;;4969355;28;20273;-51
2022/08/04 00:40:38;;;;;;;;;;;;;;;;;;4969773;28;20003;-53
2022/08/04 00:43:04;;;;;;;;;;;;;;;;;;4969070;28;19910;-50
2022/08/04 00:45:30;;;;;;;;;;;;;;;;;;4969020;28;19917;-50
2022/08/04 00:47:57;;;;;;;;;;;;;;;;;;4968848;28;20379;-50
2022/08/04 00:50:24;;;;;;;;;;;;;;;;;;4967566;28;20367;-53
2022/08/04 00:52:50;;;;;;;;;;;;;;;;;;4968695;28;19944;-51
2022/08/04 00:55:16;;;;;;;;;;;;;;;;;;4968662;28;19949;-54
2022/08/04 00:57:42;;;;;;;;;;;;;;;;;;4968184;28;19918;-54
2022/08/04 01:00:08;;;;;;;;;;;;;;;;;;4969153;28;20008;-50
2022/08/04 01:02:35;;;;;;;;;;;;;;;;;;4968752;28;19910;-53
2022/08/04 01:05:01;;;;;;;;;;;;;;;;;;4968362;28;19968;-52
2022/08/04 01:07:27;;;;;;;;;;;;;;;;;;4968735;28;19918;-51
2022/08/04 01:09:53;;;;;;;;;;;;;;;;;;4968434;28;19942;-53
2022/08/04 01:12:18;;;;;;;;;;;;;;;;;;4968877;28;20012;-55
2022/08/04 01:14:44;;;;;;;;;;;;;;;;;;4968515;28;19914;-52
2022/08/04 01:17:11;;;;;;;;;;;;;;;;;;4969108;28;19920;-49
2022/08/04 01:19:37;;;;;;;;;;;;;;;;;;4967309;28;19918;-50
2022/08/04 01:22:03;;;;;;;;;;;;;;;;;;4968360;28;19972;-49
2022/08/04 01:24:29;;;;;;;;;;;;;;;;;;4968576;28;20303;-51
2022/08/04 01:26:56;;;;;;;;;;;;;;;;;;4968048;28;19910;-50
2022/08/04 01:29:22;;;;;;;;;;;;;;;;;;4968369;28;19957;-50
2022/08/04 01:31:48;;;;;;;;;;;;;;;;;;4968387;28;19914;-50
2022/08/04 01:34:14;;;;;;;;;;;;;;;;;;4968359;28;19993;-50
2022/08/04 01:36:40;;;;;;;;;;;;;;;;;;4968758;28;20347;-49
2022/08/04 01:41:50;;;;;;;;;;;;;;;;;;4967771;28;19957;-51
2022/08/04 01:44:16;;;;;;;;;;;;;;;;;;4968168;28;19910;-50
2022/08/04 01:46:42;;;;;;;;;;;;;;;;;;4968029;28;20093;-51
2022/08/04 01:49:08;;;;;;;;;;;;;;;;;;4968216;28;20413;-52
2022/08/04 01:51:34;;;;;;;;;;;;;;;;;;4967843;28;19915;-49
2022/08/04 01:54:00;;;;;;;;;;;;;;;;;;4967723;28;19914;-53
2022/08/04 01:56:26;;;;;;;;;;;;;;;;;;4967847;28;19965;-49
2022/08/04 01:58:52;;;;;;;;;;;;;;;;;;4967724;28;19914;-50
2022/08/04 02:01:18;;;;;;;;;;;;;;;;;;4967754;28;19964;-53
2022/08/04 02:03:45;;;;;;;;;;;;;;;;;;4967476;28;19922;-53
2022/08/04 02:06:11;;;;;;;;;;;;;;;;;;4968178;28;19965;-53
2022/08/04 02:08:37;;;;;;;;;;;;;;;;;;4967447;28;20350;-52
2022/08/04 02:11:03;;;;;;;;;;;;;;;;;;4967482;28;19918;-52
2022/08/04 02:13:30;;;;;;;;;;;;;;;;;;4967657;28;19914;-49
2022/08/04 02:15:56;;;;;;;;;;;;;;;;;;4967222;28;19910;-49
2022/08/04 02:18:23;;;;;;;;;;;;;;;;;;4967199;28;19914;-50
2022/08/04 02:20:49;;;;;;;;;;;;;;;;;;4967220;28;19914;-51
2022/08/04 02:23:15;;;;;;;;;;;;;;;;;;4967496;28;19917;-50
2022/08/04 02:25:40;;;;;;;;;;;;;;;;;;4967759;28;19910;-52
2022/08/04 02:28:07;;;;;;;;;;;;;;;;;;4967195;28;19910;-50
2022/08/04 02:30:33;;;;;;;;;;;;;;;;;;4967368;28;20313;-51
2022/08/04 02:32:59;;;;;;;;;;;;;;;;;;4966593;28;20066;-50
2022/08/04 02:35:26;;;;;;;;;;;;;;;;;;4967256;28;19945;-53
2022/08/04 02:37:52;;;;;;;;;;;;;;;;;;4966985;28;20005;-49
2022/08/04 02:40:18;;;;;;;;;;;;;;;;;;4967511;28;20454;-49
2022/08/04 02:42:44;;;;;;;;;;;;;;;;;;4967325;28;19915;-51
2022/08/04 02:45:10;;;;;;;;;;;;;;;;;;4967458;28;20375;-50
2022/08/04 02:47:36;;;;;;;;;;;;;;;;;;4966852;28;19965;-49
2022/08/04 02:50:02;;;;;;;;;;;;;;;;;;4966704;28;19914;-48
2022/08/04 02:52:28;;;;;;;;;;;;;;;;;;4966762;28;20001;-50
2022/08/04 02:54:54;;;;;;;;;;;;;;;;;;4966869;28;20409;-49
2022/08/04 02:57:20;;;;;;;;;;;;;;;;;;4965172;28;20291;-52
2022/08/04 02:59:46;;;;;;;;;;;;;;;;;;4966721;28;20199;-51
2022/08/04 03:02:12;;;;;;;;;;;;;;;;;;4967127;28;20001;-50
2022/08/04 03:04:39;;;;;;;;;;;;;;;;;;4966686;28;19922;-52
2022/08/04 03:07:04;;;;;;;;;;;;;;;;;;4966382;28;19921;-52
2022/08/04 03:09:31;;;;;;;;;;;;;;;;;;4966573;28;19910;-49
2022/08/04 03:11:58;;;;;;;;;;;;;;;;;;4966550;28;19914;-51
2022/08/04 03:14:25;;;;;;;;;;;;;;;;;;4966829;28;20358;-50
2022/08/04 03:16:51;;;;;;;;;;;;;;;;;;4966252;28;19910;-50
2022/08/04 03:19:18;;;;;;;;;;;;;;;;;;4965778;28;20354;-50
2022/08/04 03:21:44;;;;;;;;;;;;;;;;;;4965011;28;19993;-49
2022/08/04 03:24:10;;;;;;;;;;;;;;;;;;4966850;28;20005;-52
2022/08/04 03:26:36;;;;;;;;;;;;;;;;;;4966347;28;19965;-50
2022/08/04 03:29:01;;;;;;;;;;;;;;;;;;4966274;28;20394;-50
2022/08/04 03:31:27;;;;;;;;;;;;;;;;;;4966356;28;20434;-50
2022/08/04 03:33:54;;;;;;;;;;;;;;;;;;4966022;28;19956;-49
2022/08/04 03:36:20;;;;;;;;;;;;;;;;;;4966356;28;19917;-49
2022/08/04 03:38:47;;;;;;;;;;;;;;;;;;4966305;28;19914;-52
2022/08/04 03:41:13;;;;;;;;;;;;;;;;;;4966663;28;19956;-50
2022/08/04 03:43:39;;;;;;;;;;;;;;;;;;4966877;28;19910;-53
2022/08/04 03:46:06;;;;;;;;;;;;;;;;;;4966379;28;19922;-52
2022/08/04 03:48:33;;;;;;;;;;;;;;;;;;4966056;28;20005;-50
2022/08/04 03:53:43;;;;;;;;;;;;;;;;;;4966169;28;19917;-49
2022/08/04 03:56:10;;;;;;;;;;;;;;;;;;4966643;28;20671;-50
2022/08/04 03:58:37;;;;;;;;;;;;;;;;;;4966079;28;19921;-53
2022/08/04 04:01:03;;;;;;;;;;;;;;;;;;4966413;28;19949;-49
2022/08/04 04:03:29;;;;;;;;;;;;;;;;;;4965903;28;19952;-52
2022/08/04 04:05:55;;;;;;;;;;;;;;;;;;4965642;28;20370;-50
2022/08/04 04:08:20;;;;;;;;;;;;;;;;;;4966527;28;19966;-52
2022/08/04 04:10:47;;;;;;;;;;;;;;;;;;4966163;28;20001;-50
2022/08/04 04:13:13;;;;;;;;;;;;;;;;;;4965956;28;19917;-51
2022/08/04 04:15:39;;;;;;;;;;;;;;;;;;4966531;28;19914;-50
2022/08/04 04:18:05;;;;;;;;;;;;;;;;;;4965321;28;20390;-50
2022/08/04 04:20:31;;;;;;;;;;;;;;;;;;4966059;28;19964;-50
2022/08/04 04:22:58;;;;;;;;;;;;;;;;;;4965741;28;20371;-52
2022/08/04 04:25:24;;;;;;;;;;;;;;;;;;4966118;28;20028;-52
2022/08/04 04:27:49;;;;;;;;;;;;;;;;;;4965439;28;19910;-50
2022/08/04 04:30:15;;;;;;;;;;;;;;;;;;4966735;28;19917;-50
2022/08/04 04:32:41;;;;;;;;;;;;;;;;;;4970195;28;19910;-53
2022/08/04 04:35:07;;;;;;;;;;;;;;;;;;4969169;28;19910;-49
2022/08/04 04:37:33;;;;;;;;;;;;;;;;;;4969209;28;19921;-51
2022/08/04 04:40:00;;;;;;;;;;;;;;;;;;4969065;28;19914;-50
2022/08/04 04:42:26;;;;;;;;;;;;;;;;;;4969199;28;19917;-52
2022/08/04 04:44:52;;;;;;;;;;;;;;;;;;4968902;28;19910;-49
2022/08/04 04:47:19;;;;;;;;;;;;;;;;;;4968946;28;19921;-49
2022/08/04 04:49:44;;;;;;;;;;;;;;;;;;4969187;28;19917;-52
2022/08/04 04:52:10;;;;;;;;;;;;;;;;;;4969201;28;19969;-49
2022/08/04 04:54:37;;;;;;;;;;;;;;;;;;4969247;28;19914;-49
2022/08/04 04:57:03;;;;;;;;;;;;;;;;;;4968864;28;19953;-52
2022/08/04 04:59:31;;;;;;;;;;;;;;;;;;4969150;28;19956;-49
2022/08/04 05:01:57;;;;;;;;;;;;;;;;;;4968880;28;19916;-49
2022/08/04 05:04:23;;;;;;;;;;;;;;;;;;4968775;28;20317;-49
2022/08/04 05:06:49;;;;;;;;;;;;;;;;;;4968465;28;20431;-52
2022/08/04 05:09:16;;;;;;;;;;;;;;;;;;4968746;28;19921;-53
2022/08/04 05:11:42;;;;;;;;;;;;;;;;;;4969700;28;19949;-50
2022/08/04 05:14:08;;;;;;;;;;;;;;;;;;4968512;28;19977;-52
2022/08/04 05:16:34;;;;;;;;;;;;;;;;;;4968345;28;19920;-49
2022/08/04 05:19:00;;;;;;;;;;;;;;;;;;4968537;28;19918;-49
2022/08/04 05:21:26;;;;;;;;;;;;;;;;;;4968736;28;20279;-50
2022/08/04 05:23:51;;;;;;;;;;;;;;;;;;4968112;28;19914;-51
2022/08/04 05:26:17;;;;;;;;;;;;;;;;;;4968389;28;19993;-50
2022/08/04 05:28:43;;;;;;;;;;;;;;;;;;4968863;28;19910;-49
2022/08/04 05:31:09;;;;;;;;;;;;;;;;;;4968963;28;19935;-49
2022/08/04 05:33:35;;;;;;;;;;;;;;;;;;4968307;28;19914;-52
2022/08/04 05:36:01;;;;;;;;;;;;;;;;;;4967944;28;20402;-52
2022/08/04 05:38:27;;;;;;;;;;;;;;;;;;4968446;28;20001;-52
2022/08/04 05:40:53;;;;;;;;;;;;;;;;;;4968169;28;20393;-50
2022/08/04 05:43:19;;;;;;;;;;;;;;;;;;4967758;28;19910;-51
2022/08/04 05:45:47;;;;;;;;;;;;;;;;;;4968010;28;19929;-52
2022/08/04 05:48:12;;;;;;;;;;;;;;;;;;4968303;28;20013;-50
2022/08/04 05:50:38;;;;;;;;;;;;;;;;;;4968644;28;20005;-48
2022/08/04 05:53:04;;;;;;;;;;;;;;;;;;4967408;28;19915;-50
2022/08/04 05:55:30;;;;;;;;;;;;;;;;;;4967992;28;19952;-50
2022/08/04 05:57:56;;;;;;;;;;;;;;;;;;4967698;28;19931;-52
2022/08/04 06:00:22;;;;;;;;;;;;;;;;;;4967796;28;19970;-50
2022/08/04 06:02:48;;;;;;;;;;;;;;;;;;4966790;28;20040;-51
2022/08/04 06:05:14;;;;;;;;;;;;;;;;;;4969000;28;19910;-52
2022/08/04 06:07:40;;;;;;;;;;;;;;;;;;4969733;28;19917;-53
2022/08/04 06:10:06;;;;;;;;;;;;;;;;;;4968839;28;19918;-52
2022/08/04 06:12:32;;;;;;;;;;;;;;;;;;4969230;28;19917;-52
2022/08/04 06:14:58;;;;;;;;;;;;;;;;;;4959930;28;19922;-51
2022/08/04 06:17:24;;;;;;;;;;;;;;;;;;4966530;28;19968;-51
2022/08/04 06:19:51;;;;;;;;;;;;;;;;;;4968630;28;19913;-52
2022/08/04 06:22:17;;;;;;;;;;;;;;;;;;4965550;28;19922;-48
2022/08/04 06:24:43;;;;;;;;;;;;;;;;;;4964413;28;19925;-53
2022/08/04 06:27:09;;;;;;;;;;;;;;;;;;4969129;28;19914;-51
2022/08/04 06:29:37;;;;;;;;;;;;;;;;;;4961461;28;19957;-42
2022/08/04 06:32:12;;;;;;;;;;;;;;;;;;4958058;28;19918;-42
2022/08/04 06:34:38;;;;;;;;;;;;;;;;;;4969268;28;19910;-41
2022/08/04 06:37:04;;;;;;;;;;;;;;;;;;4968337;28;20057;-41
2022/08/04 06:39:30;;;;;;;;;;;;;;;;;;4967523;28;20008;-42
2022/08/04 06:41:56;;;;;;;;;;;;;;;;;;4968052;28;19988;-41
2022/08/04 06:44:22;;;;;;;;;;;;;;;;;;4963988;28;19925;-43
2022/08/04 06:46:48;;;;;;;;;;;;;;;;;;4948348;28;19917;-42
2022/08/04 06:49:14;;;;;;;;;;;;;;;;;;4955194;28;19914;-42
2022/08/04 06:51:40;;;;;;;;;;;;;;;;;;4968631;28;19996;-42
2022/08/04 06:54:06;;;;;;;;;;;;;;;;;;4966499;28;19925;-42
2022/08/04 06:56:31;;;;;;;;;;;;;;;;;;4964203;28;19922;-43
2022/08/04 06:58:58;;;;;;;;;;;;;;;;;;4949648;28;19922;-44
2022/08/04 07:01:23;;;;;;;;;;;;;;;;;;4949882;28;19929;-42
2022/08/04 07:03:49;;;;;;;;;;;;;;;;;;4953201;28;19926;-42
2022/08/04 07:06:15;;;;;;;;;;;;;;;;;;4951505;28;19914;-42
2022/08/04 07:08:41;;;;;;;;;;;;;;;;;;4948121;28;19918;-42
2022/08/04 07:11:07;;;;;;;;;;;;;;;;;;4964801;28;19918;-42
2022/08/04 07:13:33;;;;;;;;;;;;;;;;;;4964789;28;19918;-42
2022/08/04 07:15:59;;;;;;;;;;;;;;;;;;4958697;28;19925;-41
2022/08/04 07:18:25;;;;;;;;;;;;;;;;;;4968155;28;19925;-42
2022/08/04 07:20:51;;;;;;;;;;;;;;;;;;4964897;28;19934;-43
2022/08/04 07:23:18;;;;;;;;;;;;;;;;;;4959720;28;19918;-42
2022/08/04 07:25:44;;;;;;;;;;;;;;;;;;4965110;28;20009;-43
2022/08/04 07:28:10;;;;;;;;;;;;;;;;;;4967293;28;20000;-42
2022/08/04 07:30:36;;;;;;;;;;;;;;;;;;4967609;28;19969;-42
2022/08/04 07:33:02;;;;;;;;;;;;;;;;;;4967253;28;19961;-43
2022/08/04 07:35:28;;;;;;;;;;;;;;;;;;4967787;28;19937;-42
2022/08/04 07:37:54;;;;;;;;;;;;;;;;;;4966985;28;19926;-43
2022/08/04 07:40:20;;;;;;;;;;;;;;;;;;4962870;28;19914;-43
2022/08/04 07:42:46;;;;;;;;;;;;;;;;;;4963802;28;19921;-42
2022/08/04 07:45:12;;;;;;;;;;;;;;;;;;4965235;28;19917;-41
2022/08/04 07:47:39;;;;;;;;;;;;;;;;;;4965270;28;19921;-42
2022/08/04 07:50:05;;;;;;;;;;;;;;;;;;4966527;28;19914;-42
2022/08/04 07:52:31;;;;;;;;;;;;;;;;;;4967678;28;19922;-42
2022/08/04 07:54:57;;;;;;;;;;;;;;;;;;4965521;28;19918;-43
2022/08/04 07:57:23;;;;;;;;;;;;;;;;;;4966540;28;19918;-42
2022/08/04 07:59:49;;;;;;;;;;;;;;;;;;4966770;28;19945;-42
2022/08/04 08:02:15;;;;;;;;;;;;;;;;;;4961982;28;19914;-42
2022/08/04 08:04:41;;;;;;;;;;;;;;;;;;4965085;28;19968;-42
2022/08/04 08:07:07;;;;;;;;;;;;;;;;;;4971545;28;19914;-42
2022/08/04 08:09:33;;;;;;;;;;;;;;;;;;4968291;28;19922;-42
2022/08/04 08:11:59;;;;;;;;;;;;;;;;;;4970274;28;19914;-42
2022/08/04 08:14:25;;;;;;;;;;;;;;;;;;4968690;28;19961;-43
2022/08/04 08:16:51;;;;;;;;;;;;;;;;;;4970637;28;19918;-43
2022/08/04 08:19:17;;;;;;;;;;;;;;;;;;4968787;28;19921;-43
2022/08/04 08:21:42;;;;;;;;;;;;;;;;;;4969139;28;19922;-43
2022/08/04 08:24:08;;;;;;;;;;;;;;;;;;4969948;28;19918;-42
2022/08/04 08:26:34;;;;;;;;;;;;;;;;;;4971387;28;19969;-42
2022/08/04 08:29:00;;;;;;;;;;;;;;;;;;4971440;28;19953;-42
2022/08/04 08:31:26;;;;;;;;;;;;;;;;;;4971644;28;19961;-42
2022/08/04 08:33:52;;;;;;;;;;;;;;;;;;4970359;28;19985;-43
2022/08/04 08:36:18;;;;;;;;;;;;;;;;;;4971517;28;19918;-42
2022/08/04 08:38:44;;;;;;;;;;;;;;;;;;4970686;28;19926;-44
2022/08/04 08:41:10;;;;;;;;;;;;;;;;;;4970388;28;19961;-42
2022/08/04 08:43:36;;;;;;;;;;;;;;;;;;4970082;28;20340;-42
2022/08/04 08:46:02;;;;;;;;;;;;;;;;;;4970022;28;20156;-42
2022/08/04 08:48:28;;;;;;;;;;;;;;;;;;4970501;28;19997;-43
2022/08/04 08:50:54;;;;;;;;;;;;;;;;;;4970243;28;19997;-43
2022/08/04 08:53:20;;;;;;;;;;;;;;;;;;4969257;28;20454;-43
2022/08/04 08:55:46;;;;;;;;;;;;;;;;;;4969765;28;20005;-43
2022/08/04 08:58:12;;;;;;;;;;;;;;;;;;4969796;28;19932;-42
2022/08/04 09:00:38;;;;;;;;;;;;;;;;;;4970672;28;19914;-42
2022/08/04 09:03:04;;;;;;;;;;;;;;;;;;4970103;28;19918;-42
2022/08/04 09:05:30;;;;;;;;;;;;;;;;;;4970451;28;19914;-42
2022/08/04 09:07:55;;;;;;;;;;;;;;;;;;4969275;28;19961;-42
2022/08/04 09:10:21;;;;;;;;;;;;;;;;;;4970208;28;19910;-42
2022/08/04 09:12:47;;;;;;;;;;;;;;;;;;4968770;28;19918;-43
2022/08/04 09:15:13;;;;;;;;;;;;;;;;;;4969227;28;19910;-42
2022/08/04 09:17:40;;;;;;;;;;;;;;;;;;4968224;28;20024;-43
2022/08/04 09:20:06;;;;;;;;;;;;;;;;;;4968819;28;19921;-42
2022/08/04 09:22:32;;;;;;;;;;;;;;;;;;4970073;28;20287;-43
2022/08/04 09:24:58;;;;;;;;;;;;;;;;;;4969966;28;20000;-42
2022/08/04 09:27:26;;;;;;;;;;;;;;;;;;4969018;28;20441;-42
2022/08/04 09:29:52;;;;;;;;;;;;;;;;;;4969593;28;19918;-42
2022/08/04 09:32:18;;;;;;;;;;;;;;;;;;4968783;28;20517;-42
2022/08/04 09:34:44;;;;;;;;;;;;;;;;;;4969873;28;19997;-42
2022/08/04 09:37:12;;;;;;;;;;;;;;;;;;4969053;28;19964;-42
2022/08/04 09:39:37;;;;;;;;;;;;;;;;;;4969584;28;20057;-43
2022/08/04 09:42:03;;;;;;;;;;;;;;;;;;4968383;28;20000;-42
2022/08/04 09:44:29;;;;;;;;;;;;;;;;;;4969673;28;19914;-43
2022/08/04 09:46:55;;;;;;;;;;;;;;;;;;4968648;28;20417;-43
2022/08/04 09:49:21;;;;;;;;;;;;;;;;;;4969659;28;19993;-43
2022/08/04 09:51:48;;;;;;;;;;;;;;;;;;4967272;28;19918;-43
2022/08/04 09:54:14;;;;;;;;;;;;;;;;;;4967057;28;20419;-42
2022/08/04 09:56:40;;;;;;;;;;;;;;;;;;4950938;28;19945;-42
2022/08/04 09:59:06;;;;;;;;;;;;;;;;;;4955034;28;19918;-43
2022/08/04 10:01:33;;;;;;;;;;;;;;;;;;4968318;28;19997;-42
2022/08/04 10:03:59;;;;;;;;;;;;;;;;;;4967680;28;20465;-43
2022/08/04 10:06:24;;;;;;;;;;;;;;;;;;4969123;28;19965;-42
2022/08/04 10:08:50;;;;;;;;;;;;;;;;;;4968930;28;20009;-43
2022/08/04 10:11:16;;;;;;;;;;;;;;;;;;4964416;28;20053;-44
2022/08/04 10:13:42;;;;;;;;;;;;;;;;;;4969442;28;19980;-42
2022/08/04 10:16:08;;;;;;;;;;;;;;;;;;4966515;28;19918;-45
2022/08/04 10:18:34;;;;;;;;;;;;;;;;;;4968830;28;19914;-44
2022/08/04 10:21:00;;;;;;;;;;;;;;;;;;4967405;28;19977;-42
2022/08/04 10:23:27;;;;;;;;;;;;;;;;;;4965396;28;19914;-42
2022/08/04 10:25:53;;;;;;;;;;;;;;;;;;4965644;28;19933;-43
2022/08/04 10:28:19;;;;;;;;;;;;;;;;;;4968279;28;19910;-42
2022/08/04 10:30:45;;;;;;;;;;;;;;;;;;4956589;28;19917;-43
2022/08/04 10:33:11;;;;;;;;;;;;;;;;;;4967799;28;19937;-44
2022/08/04 10:35:37;;;;;;;;;;;;;;;;;;4968720;28;19914;-42
2022/08/04 10:38:03;;;;;;;;;;;;;;;;;;4968621;28;20062;-43
2022/08/04 10:40:45;;;;;;;;;;;;;;;;;;4949348;29;19914;-42
2022/08/04 10:43:11;;;;;;;;;;;;;;;;;;4961896;28;19921;-43
2022/08/04 10:45:38;;;;;;;;;;;;;;;;;;4968325;28;19933;-43
2022/08/04 10:48:03;;;;;;;;;;;;;;;;;;4967585;28;19925;-43
2022/08/04 10:50:29;;;;;;;;;;;;;;;;;;4966904;28;19918;-43
2022/08/04 10:52:55;;;;;;;;;;;;;;;;;;4963922;28;20415;-44
2022/08/04 10:55:21;;;;;;;;;;;;;;;;;;4966426;28;19936;-44
2022/08/04 10:57:47;;;;;;;;;;;;;;;;;;4967820;28;19914;-46
2022/08/04 11:00:18;;;;;;;;;;;;;;;;;;4966692;28;19922;-42
2022/08/04 11:02:44;;;;;;;;;;;;;;;;;;4967674;28;19918;-43
2022/08/04 11:05:10;;;;;;;;;;;;;;;;;;4968553;28;20563;-44
2022/08/04 11:07:36;;;;;;;;;;;;;;;;;;4967113;28;19918;-43
2022/08/04 11:10:02;;;;;;;;;;;;;;;;;;4963424;28;20645;-45
2022/08/04 11:12:28;;;;;;;;;;;;;;;;;;4967627;28;19957;-44
2022/08/04 11:14:54;;;;;;;;;;;;;;;;;;4966835;28;19918;-43
2022/08/04 11:17:20;;;;;;;;;;;;;;;;;;4968192;28;19910;-44
2022/08/04 11:19:45;;;;;;;;;;;;;;;;;;4968253;28;19921;-43
2022/08/04 11:22:11;;;;;;;;;;;;;;;;;;4967735;28;19993;-43
2022/08/04 11:24:37;;;;;;;;;;;;;;;;;;4968144;28;19911;-43
2022/08/04 11:27:03;;;;;;;;;;;;;;;;;;4966556;28;20016;-45
2022/08/04 11:29:29;;;;;;;;;;;;;;;;;;4967586;28;19914;-43
2022/08/04 11:31:55;;;;;;;;;;;;;;;;;;4964370;28;19915;-44
2022/08/04 11:34:21;;;;;;;;;;;;;;;;;;4967497;28;19936;-44
2022/08/04 11:36:47;;;;;;;;;;;;;;;;;;4967803;28;19910;-44
2022/08/04 11:39:13;;;;;;;;;;;;;;;;;;4967752;28;19925;-44
2022/08/04 11:41:39;;;;;;;;;;;;;;;;;;4967646;28;19917;-44
2022/08/04 11:44:05;;;;;;;;;;;;;;;;;;4971103;28;19922;-43
2022/08/04 11:46:31;;;;;;;;;;;;;;;;;;4971379;28;19940;-43
2022/08/04 11:48:57;;;;;;;;;;;;;;;;;;4971384;28;19914;-42
2022/08/04 11:51:23;;;;;;;;;;;;;;;;;;4966741;28;19918;-42
2022/08/04 11:53:49;;;;;;;;;;;;;;;;;;4971407;28;19914;-42
2022/08/04 11:56:15;;;;;;;;;;;;;;;;;;4971701;28;19917;-42
2022/08/04 11:58:40;;;;;;;;;;;;;;;;;;4971848;28;19973;-42
2022/08/04 12:01:06;;;;;;;;;;;;;;;;;;4969295;28;19914;-41
2022/08/04 12:03:32;;;;;;;;;;;;;;;;;;4969014;28;19945;-42
2022/08/04 12:05:58;;;;;;;;;;;;;;;;;;4969207;28;19918;-42
2022/08/04 12:08:24;;;;;;;;;;;;;;;;;;4969017;28;19918;-42
2022/08/04 12:10:51;;;;;;;;;;;;;;;;;;4971034;28;20352;-41
2022/08/04 12:13:17;;;;;;;;;;;;;;;;;;4971181;28;19977;-42
2022/08/04 12:15:43;;;;;;;;;;;;;;;;;;4970561;28;19996;-41
2022/08/04 12:18:09;;;;;;;;;;;;;;;;;;4971296;28;19978;-42
2022/08/04 12:20:35;;;;;;;;;;;;;;;;;;4970929;28;19918;-42
2022/08/04 12:23:01;;;;;;;;;;;;;;;;;;4970278;28;19917;-42
2022/08/04 12:25:28;;;;;;;;;;;;;;;;;;4954667;28;20005;-42
2022/08/04 12:27:54;;;;;;;;;;;;;;;;;;4951216;29;20298;-42
2022/08/04 12:30:20;;;;;;;;;;;;;;;;;;4951955;29;19915;-43
2022/08/04 12:32:46;;;;;;;;;;;;;;;;;;4965775;28;19918;-42
2022/08/04 12:35:12;;;;;;;;;;;;;;;;;;4971373;28;20354;-43
2022/08/04 12:37:38;;;;;;;;;;;;;;;;;;4970394;28;19949;-43
2022/08/04 12:40:04;;;;;;;;;;;;;;;;;;4968531;28;19989;-43
2022/08/04 12:42:30;;;;;;;;;;;;;;;;;;4968730;28;19918;-42
2022/08/04 12:44:55;;;;;;;;;;;;;;;;;;4970181;28;19917;-43
2022/08/04 12:47:21;;;;;;;;;;;;;;;;;;4970816;28;19910;-44
2022/08/04 12:49:47;;;;;;;;;;;;;;;;;;4970541;28;19941;-43
2022/08/04 12:52:13;;;;;;;;;;;;;;;;;;4964652;28;19961;-42
2022/08/04 12:54:42;;;;;;;;;;;;;;;;;;4970899;28;19933;-43
2022/08/04 12:57:08;;;;;;;;;;;;;;;;;;4970490;28;19914;-42
2022/08/04 12:59:34;;;;;;;;;;;;;;;;;;4970483;28;20369;-42
2022/08/04 13:02:00;;;;;;;;;;;;;;;;;;4969239;28;19956;-43
2022/08/04 13:04:26;;;;;;;;;;;;;;;;;;4968437;28;19918;-43
2022/08/04 13:06:52;;;;;;;;;;;;;;;;;;4968574;28;19918;-42
2022/08/04 13:09:18;;;;;;;;;;;;;;;;;;4969567;28;19929;-43
2022/08/04 13:11:44;;;;;;;;;;;;;;;;;;4968003;28;19942;-44
2022/08/04 13:14:09;;;;;;;;;;;;;;;;;;4968552;28;19964;-42
2022/08/04 13:16:35;;;;;;;;;;;;;;;;;;4970204;28;19964;-43
2022/08/04 13:19:02;;;;;;;;;;;;;;;;;;4969971;28;20013;-44
2022/08/04 13:21:28;;;;;;;;;;;;;;;;;;4970197;28;20398;-42
2022/08/04 13:23:54;;;;;;;;;;;;;;;;;;4967469;28;20296;-43
2022/08/04 13:26:20;;;;;;;;;;;;;;;;;;4969607;28;19925;-43
2022/08/04 13:28:46;;;;;;;;;;;;;;;;;;4969862;28;19914;-42
2022/08/04 13:31:12;;;;;;;;;;;;;;;;;;4970347;28;19914;-43
2022/08/04 13:33:38;;;;;;;;;;;;;;;;;;4968882;28;20008;-43
2022/08/04 13:36:04;;;;;;;;;;;;;;;;;;4969463;28;19925;-43
2022/08/04 13:38:30;;;;;;;;;;;;;;;;;;4969636;28;19929;-44
2022/08/04 13:40:56;;;;;;;;;;;;;;;;;;4969268;28;19914;-43
2022/08/04 13:43:22;;;;;;;;;;;;;;;;;;4968610;28;19984;-43
2022/08/04 13:45:48;;;;;;;;;;;;;;;;;;4968510;28;20390;-42
2022/08/04 13:48:14;;;;;;;;;;;;;;;;;;4969024;28;19997;-43
2022/08/04 13:50:40;;;;;;;;;;;;;;;;;;4969610;28;19914;-42
2022/08/04 13:53:06;;;;;;;;;;;;;;;;;;4968589;28;19910;-44
2022/08/04 13:55:32;;;;;;;;;;;;;;;;;;4967187;28;19918;-42
2022/08/04 13:57:58;;;;;;;;;;;;;;;;;;4963010;28;19914;-41
2022/08/04 14:00:24;;;;;;;;;;;;;;;;;;4966075;28;19921;-41
2022/08/04 14:02:50;;;;;;;;;;;;;;;;;;4966951;28;19914;-42
2022/08/04 14:05:16;;;;;;;;;;;;;;;;;;4966347;28;20026;-42
2022/08/04 14:07:42;;;;;;;;;;;;;;;;;;4968130;28;20009;-43
2022/08/04 14:10:07;;;;;;;;;;;;;;;;;;4966623;28;20050;-42
2022/08/04 14:12:35;;;;;;;;;;;;;;;;;;4967714;28;19914;-45
2022/08/04 14:15:01;;;;;;;;;;;;;;;;;;4967060;28;19922;-43
2022/08/04 14:17:27;;;;;;;;;;;;;;;;;;4967394;28;19910;-44
2022/08/04 14:19:53;;;;;;;;;;;;;;;;;;4967654;28;19965;-45
2022/08/04 14:22:19;;;;;;;;;;;;;;;;;;4965989;28;19914;-43
2022/08/04 14:24:44;;;;;;;;;;;;;;;;;;4966788;28;20019;-43
2022/08/04 14:27:10;;;;;;;;;;;;;;;;;;4966781;28;19918;-43
2022/08/04 14:29:37;;;;;;;;;;;;;;;;;;4959645;28;19921;-43
2022/08/04 14:32:04;;;;;;;;;;;;;;;;;;4963636;28;19944;-43
2022/08/04 14:34:31;;;;;;;;;;;;;;;;;;4968022;28;20314;-44
2022/08/04 14:36:56;;;;;;;;;;;;;;;;;;4967853;28;19917;-43
2022/08/04 14:39:22;;;;;;;;;;;;;;;;;;4960808;28;20016;-44
2022/08/04 14:41:48;;;;;;;;;;;;;;;;;;4961252;28;20379;-44
2022/08/04 14:44:14;;;;;;;;;;;;;;;;;;4965264;28;19977;-43
2022/08/04 14:46:40;;;;;;;;;;;;;;;;;;4966912;28;19918;-43
2022/08/04 14:49:06;;;;;;;;;;;;;;;;;;4966787;28;19914;-43
2022/08/04 14:51:32;;;;;;;;;;;;;;;;;;4968940;28;19960;-42
2022/08/04 14:53:58;;;;;;;;;;;;;;;;;;4968902;28;19915;-44
2022/08/04 14:56:24;;;;;;;;;;;;;;;;;;4968830;28;19916;-44
2022/08/04 14:58:50;;;;;;;;;;;;;;;;;;4968516;28;19940;-43
2022/08/04 15:01:17;;;;;;;;;;;;;;;;;;4968044;28;19918;-42
2022/08/04 15:03:43;;;;;;;;;;;;;;;;;;4968935;28;19922;-42
2022/08/04 15:06:09;;;;;;;;;;;;;;;;;;4968656;28;19921;-43
2022/08/04 15:08:35;;;;;;;;;;;;;;;;;;4968840;28;20600;-42
2022/08/04 15:11:01;;;;;;;;;;;;;;;;;;4967424;28;20012;-43
2022/08/04 15:13:27;;;;;;;;;;;;;;;;;;4968857;28;19974;-43
2022/08/04 15:15:53;;;;;;;;;;;;;;;;;;4967615;28;20001;-44
2022/08/04 15:18:19;;;;;;;;;;;;;;;;;;4968893;28;19952;-43
2022/08/04 15:20:45;;;;;;;;;;;;;;;;;;4966461;28;19961;-42
2022/08/04 15:23:11;;;;;;;;;;;;;;;;;;4967446;28;19918;-43
2022/08/04 15:25:37;;;;;;;;;;;;;;;;;;4975038;28;19910;-44
2022/08/04 15:28:05;;;;;;;;;;;;;;;;;;4960456;28;19922;-44
2022/08/04 15:30:31;;;;;;;;;;;;;;;;;;4968212;28;19918;-43
2022/08/04 15:32:59;;;;;;;;;;;;;;;;;;4967127;28;19910;-43
2022/08/04 15:35:25;;;;;;;;;;;;;;;;;;4966619;28;20383;-42
2022/08/04 15:37:51;;;;;;;;;;;;;;;;;;4967039;28;19915;-44
2022/08/04 15:40:16;;;;;;;;;;;;;;;;;;4965077;28;19914;-42
2022/08/04 15:42:42;;;;;;;;;;;;;;;;;;4966063;28;19921;-42
2022/08/04 15:45:09;;;;;;;;;;;;;;;;;;4962965;28;19918;-42
2022/08/04 15:47:35;;;;;;;;;;;;;;;;;;4967007;28;20012;-42
2022/08/04 15:50:02;;;;;;;;;;;;;;;;;;4966840;28;20005;-43
2022/08/04 15:52:29;;;;;;;;;;;;;;;;;;4965532;28;19914;-43
2022/08/04 15:54:54;;;;;;;;;;;;;;;;;;4965686;28;19914;-42
2022/08/04 15:57:20;;;;;;;;;;;;;;;;;;4975896;28;19957;-42
2022/08/04 15:59:46;;;;;;;;;;;;;;;;;;4965775;28;20430;-41
2022/08/04 16:02:12;;;;;;;;;;;;;;;;;;4965990;28;20014;-41
2022/08/04 16:04:38;;;;;;;;;;;;;;;;;;4967050;28;19918;-40
2022/08/04 16:07:05;;;;;;;;;;;;;;;;;;4965009;28;19920;-41
2022/08/04 16:09:31;;;;;;;;;;;;;;;;;;4966923;28;20346;-42
2022/08/04 16:11:56;;;;;;;;;;;;;;;;;;4966206;28;19927;-40
2022/08/04 16:14:22;;;;;;;;;;;;;;;;;;4967270;28;20305;-40
2022/08/04 16:16:49;;;;;;;;;;;;;;;;;;4966639;28;19914;-40
2022/08/04 16:19:15;;;;;;;;;;;;;;;;;;4967101;28;19941;-41
2022/08/04 16:21:42;;;;;;;;;;;;;;;;;;4964192;28;20302;-40
2022/08/04 16:24:09;;;;;;;;;;;;;;;;;;4966561;28;19910;-40
2022/08/04 16:26:35;;;;;;;;;;;;;;;;;;4967587;28;20368;-39
2022/08/04 16:29:01;;;;;;;;;;;;;;;;;;4955644;28;20009;-40
2022/08/04 16:31:27;;;;;;;;;;;;;;;;;;4967356;28;19920;-40
2022/08/04 16:33:52;;;;;;;;;;;;;;;;;;4970097;28;20413;-41
2022/08/04 16:36:18;;;;;;;;;;;;;;;;;;4967929;28;20422;-41
2022/08/04 16:38:44;;;;;;;;;;;;;;;;;;4970610;28;20008;-41
2022/08/04 16:41:13;;;;;;;;;;;;;;;;;;4968685;28;19960;-40
2022/08/04 16:43:39;;;;;;;;;;;;;;;;;;4969748;28;19956;-40